sensor_id;sensor_type;location;lat;lon;timestamp;P1;durP1;ratioP1;P2;durP2;ratioP2
76023;SDS011;64719;52.124;6.226;2023-07-20T00:02:23;10.63;;;6.03;;
76023;SDS011;64719;52.124;6.226;2023-07-20T00:04:50;11.45;;;6.13;;
76023;SDS011;64719;52.124;6.226;2023-07-20T00:07:16;8.43;;;6.00;;
76023;SDS011;64719;52.124;6.226;2023-07-20T00:09:43;9.90;;;5.68;;
76023;SDS011;64719;52.124;6.226;2023-07-20T00:12:09;9.20;;;6.10;;
76023;SDS011;64719;52.124;6.226;2023-07-20T00:14:36;9.82;;;5.97;;
76023;SDS011;64719;52.124;6.226;2023-07-20T00:17:04;9.75;;;6.07;;
76023;SDS011;64719;52.124;6.226;2023-07-20T00:19:31;9.70;;;5.40;;
76023;SDS011;64719;52.124;6.226;2023-07-20T00:21:58;8.63;;;5.65;;
76023;SDS011;64719;52.124;6.226;2023-07-20T00:24:25;7.93;;;5.35;;
76023;SDS011;64719;52.124;6.226;2023-07-20T00:26:52;9.57;;;5.15;;
76023;SDS011;64719;52.124;6.226;2023-07-20T00:29:18;9.50;;;5.63;;
76023;SDS011;64719;52.124;6.226;2023-07-20T00:31:45;9.07;;;5.70;;
76023;SDS011;64719;52.124;6.226;2023-07-20T00:34:13;7.03;;;4.95;;
76023;SDS011;64719;52.124;6.226;2023-07-20T00:36:39;7.38;;;5.22;;
76023;SDS011;64719;52.124;6.226;2023-07-20T00:39:06;9.32;;;4.97;;
76023;SDS011;64719;52.124;6.226;2023-07-20T00:41:33;6.70;;;5.00;;
76023;SDS011;64719;52.124;6.226;2023-07-20T00:43:59;6.75;;;5.60;;
76023;SDS011;64719;52.124;6.226;2023-07-20T00:46:26;7.85;;;5.40;;
76023;SDS011;64719;52.124;6.226;2023-07-20T00:48:53;7.75;;;5.65;;
76023;SDS011;64719;52.124;6.226;2023-07-20T00:51:21;9.45;;;5.03;;
76023;SDS011;64719;52.124;6.226;2023-07-20T00:53:49;6.55;;;4.55;;
76023;SDS011;64719;52.124;6.226;2023-07-20T00:56:16;5.80;;;4.65;;
76023;SDS011;64719;52.124;6.226;2023-07-20T00:58:43;7.40;;;4.70;;
76023;SDS011;64719;52.124;6.226;2023-07-20T01:01:10;7.40;;;4.00;;
76023;SDS011;64719;52.124;6.226;2023-07-20T01:03:36;8.95;;;4.22;;
76023;SDS011;64719;52.124;6.226;2023-07-20T01:06:05;5.90;;;4.00;;
76023;SDS011;64719;52.124;6.226;2023-07-20T01:08:44;6.30;;;4.72;;
76023;SDS011;64719;52.124;6.226;2023-07-20T01:11:22;6.47;;;4.13;;
76023;SDS011;64719;52.124;6.226;2023-07-20T01:13:54;7.38;;;4.38;;
76023;SDS011;64719;52.124;6.226;2023-07-20T01:16:21;7.30;;;4.60;;
76023;SDS011;64719;52.124;6.226;2023-07-20T01:18:48;7.03;;;4.50;;
76023;SDS011;64719;52.124;6.226;2023-07-20T01:21:17;5.60;;;4.10;;
76023;SDS011;64719;52.124;6.226;2023-07-20T01:24:02;7.22;;;4.35;;
76023;SDS011;64719;52.124;6.226;2023-07-20T01:26:54;6.50;;;4.50;;
76023;SDS011;64719;52.124;6.226;2023-07-20T01:29:41;5.43;;;4.03;;
76023;SDS011;64719;52.124;6.226;2023-07-20T01:32:23;5.07;;;4.15;;
76023;SDS011;64719;52.124;6.226;2023-07-20T01:34:50;5.53;;;4.15;;
76023;SDS011;64719;52.124;6.226;2023-07-20T01:37:20;5.28;;;3.60;;
76023;SDS011;64719;52.124;6.226;2023-07-20T01:39:51;6.97;;;3.75;;
76023;SDS011;64719;52.124;6.226;2023-07-20T01:42:20;5.07;;;4.00;;
76023;SDS011;64719;52.124;6.226;2023-07-20T01:44:47;5.55;;;3.80;;
76023;SDS011;64719;52.124;6.226;2023-07-20T01:47:16;4.60;;;3.40;;
76023;SDS011;64719;52.124;6.226;2023-07-20T01:49:44;4.85;;;3.00;;
76023;SDS011;64719;52.124;6.226;2023-07-20T01:52:10;4.18;;;3.00;;
76023;SDS011;64719;52.124;6.226;2023-07-20T01:54:37;4.22;;;3.17;;
76023;SDS011;64719;52.124;6.226;2023-07-20T01:57:04;4.90;;;3.63;;
76023;SDS011;64719;52.124;6.226;2023-07-20T01:59:31;4.32;;;3.45;;
76023;SDS011;64719;52.124;6.226;2023-07-20T02:01:57;4.72;;;3.55;;
76023;SDS011;64719;52.124;6.226;2023-07-20T02:04:24;6.18;;;4.15;;
76023;SDS011;64719;52.124;6.226;2023-07-20T02:06:52;5.78;;;3.60;;
76023;SDS011;64719;52.124;6.226;2023-07-20T02:09:18;5.00;;;3.80;;
76023;SDS011;64719;52.124;6.226;2023-07-20T02:11:45;4.22;;;3.30;;
76023;SDS011;64719;52.124;6.226;2023-07-20T02:14:12;4.82;;;3.58;;
76023;SDS011;64719;52.124;6.226;2023-07-20T02:16:39;7.68;;;3.80;;
76023;SDS011;64719;52.124;6.226;2023-07-20T02:19:05;4.97;;;3.60;;
76023;SDS011;64719;52.124;6.226;2023-07-20T02:21:32;5.57;;;3.53;;
76023;SDS011;64719;52.124;6.226;2023-07-20T02:24:00;7.50;;;3.92;;
76023;SDS011;64719;52.124;6.226;2023-07-20T02:26:26;4.03;;;3.13;;
76023;SDS011;64719;52.124;6.226;2023-07-20T02:28:53;4.07;;;3.30;;
76023;SDS011;64719;52.124;6.226;2023-07-20T02:31:19;5.03;;;2.92;;
76023;SDS011;64719;52.124;6.226;2023-07-20T02:33:46;4.90;;;3.42;;
76023;SDS011;64719;52.124;6.226;2023-07-20T02:36:13;3.70;;;3.30;;
76023;SDS011;64719;52.124;6.226;2023-07-20T02:38:39;4.53;;;3.50;;
76023;SDS011;64719;52.124;6.226;2023-07-20T02:41:07;3.97;;;3.28;;
76023;SDS011;64719;52.124;6.226;2023-07-20T02:43:34;4.53;;;3.50;;
76023;SDS011;64719;52.124;6.226;2023-07-20T02:46:00;4.82;;;3.03;;
76023;SDS011;64719;52.124;6.226;2023-07-20T02:48:27;4.90;;;3.22;;
76023;SDS011;64719;52.124;6.226;2023-07-20T02:50:53;4.45;;;3.15;;
76023;SDS011;64719;52.124;6.226;2023-07-20T02:53:20;4.47;;;3.45;;
76023;SDS011;64719;52.124;6.226;2023-07-20T02:55:46;4.22;;;3.30;;
76023;SDS011;64719;52.124;6.226;2023-07-20T02:58:14;4.43;;;3.72;;
76023;SDS011;64719;52.124;6.226;2023-07-20T03:00:42;5.63;;;3.47;;
76023;SDS011;64719;52.124;6.226;2023-07-20T03:03:08;5.40;;;3.53;;
76023;SDS011;64719;52.124;6.226;2023-07-20T03:05:35;5.93;;;3.42;;
76023;SDS011;64719;52.124;6.226;2023-07-20T03:08:04;4.55;;;3.60;;
76023;SDS011;64719;52.124;6.226;2023-07-20T03:10:31;5.03;;;3.38;;
76023;SDS011;64719;52.124;6.226;2023-07-20T03:12:58;5.78;;;3.78;;
76023;SDS011;64719;52.124;6.226;2023-07-20T03:15:26;4.32;;;3.25;;
76023;SDS011;64719;52.124;6.226;2023-07-20T03:17:52;5.35;;;3.40;;
76023;SDS011;64719;52.124;6.226;2023-07-20T03:20:19;5.07;;;3.45;;
76023;SDS011;64719;52.124;6.226;2023-07-20T03:22:45;4.82;;;2.95;;
76023;SDS011;64719;52.124;6.226;2023-07-20T03:25:12;6.78;;;3.60;;
76023;SDS011;64719;52.124;6.226;2023-07-20T03:27:39;4.55;;;3.67;;
76023;SDS011;64719;52.124;6.226;2023-07-20T03:32:35;4.55;;;3.20;;
76023;SDS011;64719;52.124;6.226;2023-07-20T03:35:02;4.63;;;3.53;;
76023;SDS011;64719;52.124;6.226;2023-07-20T03:37:29;7.90;;;3.92;;
76023;SDS011;64719;52.124;6.226;2023-07-20T03:39:56;5.40;;;3.80;;
76023;SDS011;64719;52.124;6.226;2023-07-20T03:42:22;6.07;;;3.83;;
76023;SDS011;64719;52.124;6.226;2023-07-20T03:44:49;5.70;;;3.50;;
76023;SDS011;64719;52.124;6.226;2023-07-20T03:47:16;4.13;;;3.42;;
76023;SDS011;64719;52.124;6.226;2023-07-20T03:49:44;4.03;;;2.95;;
76023;SDS011;64719;52.124;6.226;2023-07-20T03:52:10;5.85;;;4.00;;
76023;SDS011;64719;52.124;6.226;2023-07-20T03:54:37;4.55;;;3.38;;
76023;SDS011;64719;52.124;6.226;2023-07-20T03:57:04;4.35;;;3.50;;
76023;SDS011;64719;52.124;6.226;2023-07-20T03:59:30;6.68;;;3.50;;
76023;SDS011;64719;52.124;6.226;2023-07-20T04:01:58;5.75;;;3.58;;
76023;SDS011;64719;52.124;6.226;2023-07-20T04:04:25;5.75;;;3.53;;
76023;SDS011;64719;52.124;6.226;2023-07-20T04:06:53;5.88;;;3.55;;
76023;SDS011;64719;52.124;6.226;2023-07-20T04:09:20;5.68;;;3.58;;
76023;SDS011;64719;52.124;6.226;2023-07-20T04:11:46;4.57;;;3.50;;
76023;SDS011;64719;52.124;6.226;2023-07-20T04:14:13;4.88;;;3.10;;
76023;SDS011;64719;52.124;6.226;2023-07-20T04:16:39;4.70;;;3.70;;
76023;SDS011;64719;52.124;6.226;2023-07-20T04:19:06;5.65;;;3.40;;
76023;SDS011;64719;52.124;6.226;2023-07-20T04:21:39;5.07;;;3.45;;
76023;SDS011;64719;52.124;6.226;2023-07-20T04:24:08;5.32;;;3.33;;
76023;SDS011;64719;52.124;6.226;2023-07-20T04:26:34;4.57;;;3.35;;
76023;SDS011;64719;52.124;6.226;2023-07-20T04:29:01;4.72;;;3.58;;
76023;SDS011;64719;52.124;6.226;2023-07-20T04:31:28;8.27;;;4.05;;
76023;SDS011;64719;52.124;6.226;2023-07-20T04:33:57;7.65;;;4.35;;
76023;SDS011;64719;52.124;6.226;2023-07-20T04:36:24;8.32;;;4.40;;
76023;SDS011;64719;52.124;6.226;2023-07-20T04:38:50;5.18;;;4.20;;
76023;SDS011;64719;52.124;6.226;2023-07-20T04:41:18;3.10;;;2.42;;
76023;SDS011;64719;52.124;6.226;2023-07-20T04:43:45;2.60;;;2.22;;
76023;SDS011;64719;52.124;6.226;2023-07-20T04:46:12;4.05;;;2.67;;
76023;SDS011;64719;52.124;6.226;2023-07-20T04:48:39;4.05;;;2.25;;
76023;SDS011;64719;52.124;6.226;2023-07-20T04:51:06;2.30;;;1.90;;
76023;SDS011;64719;52.124;6.226;2023-07-20T04:53:33;3.22;;;1.83;;
76023;SDS011;64719;52.124;6.226;2023-07-20T04:55:59;2.42;;;1.90;;
76023;SDS011;64719;52.124;6.226;2023-07-20T04:58:27;3.03;;;2.17;;
76023;SDS011;64719;52.124;6.226;2023-07-20T05:00:53;2.60;;;1.80;;
76023;SDS011;64719;52.124;6.226;2023-07-20T05:03:20;3.20;;;1.98;;
76023;SDS011;64719;52.124;6.226;2023-07-20T05:05:47;2.17;;;1.88;;
76023;SDS011;64719;52.124;6.226;2023-07-20T05:08:14;3.08;;;1.95;;
76023;SDS011;64719;52.124;6.226;2023-07-20T05:10:41;5.05;;;1.98;;
76023;SDS011;64719;52.124;6.226;2023-07-20T05:13:07;2.47;;;1.88;;
76023;SDS011;64719;52.124;6.226;2023-07-20T05:15:35;3.25;;;1.90;;
76023;SDS011;64719;52.124;6.226;2023-07-20T05:18:02;2.88;;;1.90;;
76023;SDS011;64719;52.124;6.226;2023-07-20T05:20:28;6.07;;;1.83;;
76023;SDS011;64719;52.124;6.226;2023-07-20T05:22:56;2.67;;;1.50;;
76023;SDS011;64719;52.124;6.226;2023-07-20T05:25:23;2.53;;;1.70;;
76023;SDS011;64719;52.124;6.226;2023-07-20T05:27:49;1.52;;;1.40;;
76023;SDS011;64719;52.124;6.226;2023-07-20T05:30:16;2.33;;;1.45;;
76023;SDS011;64719;52.124;6.226;2023-07-20T05:32:44;1.90;;;1.70;;
76023;SDS011;64719;52.124;6.226;2023-07-20T05:35:16;2.25;;;1.70;;
76023;SDS011;64719;52.124;6.226;2023-07-20T05:37:42;3.00;;;1.90;;
76023;SDS011;64719;52.124;6.226;2023-07-20T05:40:09;2.65;;;1.50;;
76023;SDS011;64719;52.124;6.226;2023-07-20T05:42:37;2.05;;;1.58;;
76023;SDS011;64719;52.124;6.226;2023-07-20T05:45:04;1.80;;;1.50;;
76023;SDS011;64719;52.124;6.226;2023-07-20T05:47:31;2.78;;;1.67;;
76023;SDS011;64719;52.124;6.226;2023-07-20T05:49:59;2.28;;;1.50;;
76023;SDS011;64719;52.124;6.226;2023-07-20T05:52:25;2.17;;;1.33;;
76023;SDS011;64719;52.124;6.226;2023-07-20T05:54:52;2.60;;;1.50;;
76023;SDS011;64719;52.124;6.226;2023-07-20T05:57:19;2.75;;;1.42;;
76023;SDS011;64719;52.124;6.226;2023-07-20T05:59:46;3.15;;;1.38;;
76023;SDS011;64719;52.124;6.226;2023-07-20T06:02:12;2.80;;;1.50;;
76023;SDS011;64719;52.124;6.226;2023-07-20T06:04:39;2.85;;;1.50;;
76023;SDS011;64719;52.124;6.226;2023-07-20T06:07:07;1.45;;;1.20;;
76023;SDS011;64719;52.124;6.226;2023-07-20T06:09:34;1.60;;;1.25;;
76023;SDS011;64719;52.124;6.226;2023-07-20T06:12:01;1.55;;;1.30;;
76023;SDS011;64719;52.124;6.226;2023-07-20T06:14:27;1.95;;;1.35;;
76023;SDS011;64719;52.124;6.226;2023-07-20T06:16:54;1.60;;;1.20;;
76023;SDS011;64719;52.124;6.226;2023-07-20T06:19:20;3.05;;;1.30;;
76023;SDS011;64719;52.124;6.226;2023-07-20T06:21:48;2.83;;;1.20;;
76023;SDS011;64719;52.124;6.226;2023-07-20T06:24:17;2.10;;;1.20;;
76023;SDS011;64719;52.124;6.226;2023-07-20T06:26:43;2.20;;;1.10;;
76023;SDS011;64719;52.124;6.226;2023-07-20T06:29:10;1.50;;;1.00;;
76023;SDS011;64719;52.124;6.226;2023-07-20T06:31:37;2.00;;;1.02;;
76023;SDS011;64719;52.124;6.226;2023-07-20T06:34:03;2.40;;;1.05;;
76023;SDS011;64719;52.124;6.226;2023-07-20T06:36:30;2.15;;;1.10;;
76023;SDS011;64719;52.124;6.226;2023-07-20T06:38:57;1.40;;;0.90;;
76023;SDS011;64719;52.124;6.226;2023-07-20T06:41:25;1.63;;;1.02;;
76023;SDS011;64719;52.124;6.226;2023-07-20T06:43:51;1.90;;;1.10;;
76023;SDS011;64719;52.124;6.226;2023-07-20T06:46:23;1.73;;;1.02;;
76023;SDS011;64719;52.124;6.226;2023-07-20T06:48:49;1.15;;;0.82;;
76023;SDS011;64719;52.124;6.226;2023-07-20T06:51:16;2.65;;;1.23;;
76023;SDS011;64719;52.124;6.226;2023-07-20T06:53:43;1.40;;;0.90;;
76023;SDS011;64719;52.124;6.226;2023-07-20T06:56:09;3.42;;;1.02;;
76023;SDS011;64719;52.124;6.226;2023-07-20T06:58:37;3.58;;;1.00;;
76023;SDS011;64719;52.124;6.226;2023-07-20T07:01:04;2.20;;;0.98;;
76023;SDS011;64719;52.124;6.226;2023-07-20T07:03:32;2.65;;;0.90;;
76023;SDS011;64719;52.124;6.226;2023-07-20T07:05:58;1.52;;;0.80;;
76023;SDS011;64719;52.124;6.226;2023-07-20T07:08:25;1.08;;;0.60;;
76023;SDS011;64719;52.124;6.226;2023-07-20T07:10:51;1.38;;;0.60;;
76023;SDS011;64719;52.124;6.226;2023-07-20T07:13:18;0.95;;;0.60;;
76023;SDS011;64719;52.124;6.226;2023-07-20T07:15:47;2.25;;;0.75;;
76023;SDS011;64719;52.124;6.226;2023-07-20T07:18:13;2.58;;;1.00;;
76023;SDS011;64719;52.124;6.226;2023-07-20T07:20:40;3.50;;;0.88;;
76023;SDS011;64719;52.124;6.226;2023-07-20T07:23:06;1.90;;;0.90;;
76023;SDS011;64719;52.124;6.226;2023-07-20T07:25:33;2.63;;;0.73;;
76023;SDS011;64719;52.124;6.226;2023-07-20T07:28:00;3.58;;;0.70;;
76023;SDS011;64719;52.124;6.226;2023-07-20T07:30:26;2.20;;;0.63;;
76023;SDS011;64719;52.124;6.226;2023-07-20T07:32:54;1.48;;;0.60;;
76023;SDS011;64719;52.124;6.226;2023-07-20T07:35:21;2.67;;;0.60;;
76023;SDS011;64719;52.124;6.226;2023-07-20T07:37:47;0.93;;;0.60;;
76023;SDS011;64719;52.124;6.226;2023-07-20T07:40:14;1.33;;;0.55;;
76023;SDS011;64719;52.124;6.226;2023-07-20T07:42:40;2.45;;;0.65;;
76023;SDS011;64719;52.124;6.226;2023-07-20T07:45:07;1.15;;;0.57;;
76023;SDS011;64719;52.124;6.226;2023-07-20T07:47:34;1.90;;;0.60;;
76023;SDS011;64719;52.124;6.226;2023-07-20T07:50:03;1.17;;;0.68;;
76023;SDS011;64719;52.124;6.226;2023-07-20T07:52:30;1.98;;;0.70;;
76023;SDS011;64719;52.124;6.226;2023-07-20T07:54:57;0.85;;;0.50;;
76023;SDS011;64719;52.124;6.226;2023-07-20T07:57:25;0.88;;;0.60;;
76023;SDS011;64719;52.124;6.226;2023-07-20T07:59:51;1.60;;;0.85;;
76023;SDS011;64719;52.124;6.226;2023-07-20T08:02:18;1.15;;;0.70;;
76023;SDS011;64719;52.124;6.226;2023-07-20T08:04:44;1.52;;;0.73;;
76023;SDS011;64719;52.124;6.226;2023-07-20T08:07:12;1.73;;;0.68;;
76023;SDS011;64719;52.124;6.226;2023-07-20T08:09:39;0.80;;;0.60;;
76023;SDS011;64719;52.124;6.226;2023-07-20T08:12:06;2.15;;;0.65;;
76023;SDS011;64719;52.124;6.226;2023-07-20T08:14:33;5.07;;;0.80;;
76023;SDS011;64719;52.124;6.226;2023-07-20T08:17:00;1.48;;;0.65;;
76023;SDS011;64719;52.124;6.226;2023-07-20T08:19:27;1.50;;;0.60;;
76023;SDS011;64719;52.124;6.226;2023-07-20T08:21:53;2.30;;;0.80;;
76023;SDS011;64719;52.124;6.226;2023-07-20T08:24:21;3.22;;;0.70;;
76023;SDS011;64719;52.124;6.226;2023-07-20T08:26:48;1.30;;;0.68;;
76023;SDS011;64719;52.124;6.226;2023-07-20T08:29:14;1.77;;;0.63;;
76023;SDS011;64719;52.124;6.226;2023-07-20T08:31:41;1.10;;;0.70;;
76023;SDS011;64719;52.124;6.226;2023-07-20T08:34:07;1.45;;;0.52;;
76023;SDS011;64719;52.124;6.226;2023-07-20T08:36:34;1.58;;;0.70;;
76023;SDS011;64719;52.124;6.226;2023-07-20T08:41:30;1.10;;;0.60;;
76023;SDS011;64719;52.124;6.226;2023-07-20T08:43:56;0.95;;;0.60;;
76023;SDS011;64719;52.124;6.226;2023-07-20T08:46:24;1.85;;;0.60;;
76023;SDS011;64719;52.124;6.226;2023-07-20T08:48:53;1.52;;;0.70;;
76023;SDS011;64719;52.124;6.226;2023-07-20T08:51:21;2.00;;;0.63;;
76023;SDS011;64719;52.124;6.226;2023-07-20T08:53:48;0.70;;;0.60;;
76023;SDS011;64719;52.124;6.226;2023-07-20T08:56:17;1.77;;;0.55;;
76023;SDS011;64719;52.124;6.226;2023-07-20T08:58:47;1.90;;;0.60;;
76023;SDS011;64719;52.124;6.226;2023-07-20T09:01:14;0.90;;;0.40;;
76023;SDS011;64719;52.124;6.226;2023-07-20T09:03:41;0.82;;;0.50;;
76023;SDS011;64719;52.124;6.226;2023-07-20T09:06:11;1.52;;;0.50;;
76023;SDS011;64719;52.124;6.226;2023-07-20T09:08:38;2.10;;;0.55;;
76023;SDS011;64719;52.124;6.226;2023-07-20T09:11:05;2.50;;;0.70;;
76023;SDS011;64719;52.124;6.226;2023-07-20T09:13:32;0.80;;;0.43;;
76023;SDS011;64719;52.124;6.226;2023-07-20T09:16:00;0.80;;;0.65;;
76023;SDS011;64719;52.124;6.226;2023-07-20T09:18:29;0.80;;;0.40;;
76023;SDS011;64719;52.124;6.226;2023-07-20T09:21:00;2.10;;;0.68;;
76023;SDS011;64719;52.124;6.226;2023-07-20T09:23:31;1.08;;;0.52;;
76023;SDS011;64719;52.124;6.226;2023-07-20T09:25:59;1.02;;;0.40;;
76023;SDS011;64719;52.124;6.226;2023-07-20T09:28:26;1.05;;;0.50;;
76023;SDS011;64719;52.124;6.226;2023-07-20T09:30:54;1.35;;;0.60;;
76023;SDS011;64719;52.124;6.226;2023-07-20T09:33:24;1.90;;;0.50;;
76023;SDS011;64719;52.124;6.226;2023-07-20T09:35:51;2.10;;;0.60;;
76023;SDS011;64719;52.124;6.226;2023-07-20T09:38:18;0.60;;;0.30;;
76023;SDS011;64719;52.124;6.226;2023-07-20T09:40:44;1.25;;;0.50;;
76023;SDS011;64719;52.124;6.226;2023-07-20T09:43:11;2.05;;;0.60;;
76023;SDS011;64719;52.124;6.226;2023-07-20T09:45:39;0.55;;;0.30;;
76023;SDS011;64719;52.124;6.226;2023-07-20T09:48:07;1.15;;;0.50;;
76023;SDS011;64719;52.124;6.226;2023-07-20T09:50:36;0.50;;;0.40;;
76023;SDS011;64719;52.124;6.226;2023-07-20T09:53:07;3.30;;;0.68;;
76023;SDS011;64719;52.124;6.226;2023-07-20T09:55:35;0.80;;;0.55;;
76023;SDS011;64719;52.124;6.226;2023-07-20T09:58:03;0.65;;;0.43;;
76023;SDS011;64719;52.124;6.226;2023-07-20T10:00:32;1.67;;;0.63;;
76023;SDS011;64719;52.124;6.226;2023-07-20T10:03:00;1.60;;;0.55;;
76023;SDS011;64719;52.124;6.226;2023-07-20T10:05:30;2.05;;;0.50;;
76023;SDS011;64719;52.124;6.226;2023-07-20T10:08:01;2.33;;;0.77;;
76023;SDS011;64719;52.124;6.226;2023-07-20T10:10:31;0.80;;;0.50;;
76023;SDS011;64719;52.124;6.226;2023-07-20T10:13:00;2.20;;;0.80;;
76023;SDS011;64719;52.124;6.226;2023-07-20T10:15:28;1.67;;;0.50;;
76023;SDS011;64719;52.124;6.226;2023-07-20T10:17:59;1.20;;;0.60;;
76023;SDS011;64719;52.124;6.226;2023-07-20T10:20:30;1.10;;;0.52;;
76023;SDS011;64719;52.124;6.226;2023-07-20T10:23:00;0.75;;;0.55;;
76023;SDS011;64719;52.124;6.226;2023-07-20T10:25:27;1.65;;;0.82;;
76023;SDS011;64719;52.124;6.226;2023-07-20T10:27:54;1.70;;;0.43;;
76023;SDS011;64719;52.124;6.226;2023-07-20T10:30:23;1.45;;;0.60;;
76023;SDS011;64719;52.124;6.226;2023-07-20T10:32:52;0.55;;;0.40;;
76023;SDS011;64719;52.124;6.226;2023-07-20T10:35:19;1.35;;;0.50;;
76023;SDS011;64719;52.124;6.226;2023-07-20T10:37:46;1.38;;;0.50;;
76023;SDS011;64719;52.124;6.226;2023-07-20T10:40:25;0.70;;;0.40;;
76023;SDS011;64719;52.124;6.226;2023-07-20T10:42:56;0.75;;;0.50;;
76023;SDS011;64719;52.124;6.226;2023-07-20T10:45:36;1.60;;;0.60;;
76023;SDS011;64719;52.124;6.226;2023-07-20T10:48:05;1.02;;;0.50;;
76023;SDS011;64719;52.124;6.226;2023-07-20T10:50:33;1.23;;;0.45;;
76023;SDS011;64719;52.124;6.226;2023-07-20T10:53:16;1.17;;;0.57;;
76023;SDS011;64719;52.124;6.226;2023-07-20T10:55:45;1.25;;;0.65;;
76023;SDS011;64719;52.124;6.226;2023-07-20T10:58:15;2.20;;;0.60;;
76023;SDS011;64719;52.124;6.226;2023-07-20T11:00:55;0.88;;;0.50;;
76023;SDS011;64719;52.124;6.226;2023-07-20T11:03:28;2.78;;;0.50;;
76023;SDS011;64719;52.124;6.226;2023-07-20T11:05:56;1.55;;;0.50;;
76023;SDS011;64719;52.124;6.226;2023-07-20T11:08:38;0.50;;;0.40;;
76023;SDS011;64719;52.124;6.226;2023-07-20T11:11:21;1.45;;;0.73;;
76023;SDS011;64719;52.124;6.226;2023-07-20T11:13:58;0.80;;;0.55;;
76023;SDS011;64719;52.124;6.226;2023-07-20T11:16:35;1.13;;;0.50;;
76023;SDS011;64719;52.124;6.226;2023-07-20T11:19:04;1.15;;;0.70;;
76023;SDS011;64719;52.124;6.226;2023-07-20T11:21:35;2.08;;;0.70;;
76023;SDS011;64719;52.124;6.226;2023-07-20T11:24:04;1.15;;;0.60;;
76023;SDS011;64719;52.124;6.226;2023-07-20T11:29:09;2.28;;;0.90;;
76023;SDS011;64719;52.124;6.226;2023-07-20T11:31:36;1.13;;;0.70;;
76023;SDS011;64719;52.124;6.226;2023-07-20T11:34:04;1.35;;;0.68;;
76023;SDS011;64719;52.124;6.226;2023-07-20T11:36:31;1.45;;;0.70;;
76023;SDS011;64719;52.124;6.226;2023-07-20T11:39:00;0.90;;;0.60;;
76023;SDS011;64719;52.124;6.226;2023-07-20T11:41:29;0.70;;;0.57;;
76023;SDS011;64719;52.124;6.226;2023-07-20T11:43:58;1.70;;;0.80;;
76023;SDS011;64719;52.124;6.226;2023-07-20T11:46:24;2.70;;;0.70;;
76023;SDS011;64719;52.124;6.226;2023-07-20T11:48:55;1.17;;;0.70;;
76023;SDS011;64719;52.124;6.226;2023-07-20T11:51:23;1.08;;;0.73;;
76023;SDS011;64719;52.124;6.226;2023-07-20T11:53:50;1.00;;;0.65;;
76023;SDS011;64719;52.124;6.226;2023-07-20T11:56:17;1.50;;;0.70;;
76023;SDS011;64719;52.124;6.226;2023-07-20T11:58:43;0.90;;;0.63;;
76023;SDS011;64719;52.124;6.226;2023-07-20T12:01:12;2.13;;;0.80;;
76023;SDS011;64719;52.124;6.226;2023-07-20T12:03:39;1.95;;;0.77;;
76023;SDS011;64719;52.124;6.226;2023-07-20T12:06:08;2.03;;;1.00;;
76023;SDS011;64719;52.124;6.226;2023-07-20T12:08:35;1.23;;;0.70;;
76023;SDS011;64719;52.124;6.226;2023-07-20T12:11:04;0.95;;;0.65;;
76023;SDS011;64719;52.124;6.226;2023-07-20T12:13:38;2.53;;;0.65;;
76023;SDS011;64719;52.124;6.226;2023-07-20T12:16:09;1.08;;;0.70;;
76023;SDS011;64719;52.124;6.226;2023-07-20T12:18:38;1.60;;;0.80;;
76023;SDS011;64719;52.124;6.226;2023-07-20T12:21:05;0.80;;;0.70;;
76023;SDS011;64719;52.124;6.226;2023-07-20T12:26:03;1.35;;;0.70;;
76023;SDS011;64719;52.124;6.226;2023-07-20T12:28:33;1.10;;;0.80;;
76023;SDS011;64719;52.124;6.226;2023-07-20T12:31:01;1.67;;;0.95;;
76023;SDS011;64719;52.124;6.226;2023-07-20T12:33:28;1.52;;;0.73;;
76023;SDS011;64719;52.124;6.226;2023-07-20T12:35:56;2.75;;;1.00;;
76023;SDS011;64719;52.124;6.226;2023-07-20T12:38:24;2.42;;;0.70;;
76023;SDS011;64719;52.124;6.226;2023-07-20T12:40:52;0.75;;;0.65;;
76023;SDS011;64719;52.124;6.226;2023-07-20T12:43:20;2.15;;;0.70;;
76023;SDS011;64719;52.124;6.226;2023-07-20T12:45:46;2.50;;;0.85;;
76023;SDS011;64719;52.124;6.226;2023-07-20T12:48:13;1.40;;;0.73;;
76023;SDS011;64719;52.124;6.226;2023-07-20T12:50:39;2.38;;;0.82;;
76023;SDS011;64719;52.124;6.226;2023-07-20T12:53:07;0.98;;;0.60;;
76023;SDS011;64719;52.124;6.226;2023-07-20T12:55:34;2.50;;;0.75;;
76023;SDS011;64719;52.124;6.226;2023-07-20T12:58:01;2.08;;;0.75;;
76023;SDS011;64719;52.124;6.226;2023-07-20T13:00:27;1.67;;;0.82;;
76023;SDS011;64719;52.124;6.226;2023-07-20T13:02:54;4.63;;;0.93;;
76023;SDS011;64719;52.124;6.226;2023-07-20T13:05:20;4.63;;;0.90;;
76023;SDS011;64719;52.124;6.226;2023-07-20T13:07:47;1.35;;;0.80;;
76023;SDS011;64719;52.124;6.226;2023-07-20T13:10:15;2.20;;;1.10;;
76023;SDS011;64719;52.124;6.226;2023-07-20T13:12:42;2.08;;;0.95;;
76023;SDS011;64719;52.124;6.226;2023-07-20T13:15:09;1.60;;;0.75;;
76023;SDS011;64719;52.124;6.226;2023-07-20T13:17:37;1.38;;;0.90;;
76023;SDS011;64719;52.124;6.226;2023-07-20T13:20:05;2.05;;;0.57;;
76023;SDS011;64719;52.124;6.226;2023-07-20T13:22:35;2.55;;;0.88;;
76023;SDS011;64719;52.124;6.226;2023-07-20T13:25:02;1.38;;;0.75;;
76023;SDS011;64719;52.124;6.226;2023-07-20T13:27:30;1.40;;;0.70;;
76023;SDS011;64719;52.124;6.226;2023-07-20T13:29:57;1.00;;;0.68;;
76023;SDS011;64719;52.124;6.226;2023-07-20T13:32:24;2.08;;;0.70;;
76023;SDS011;64719;52.124;6.226;2023-07-20T13:34:50;1.60;;;0.70;;
76023;SDS011;64719;52.124;6.226;2023-07-20T13:37:17;1.30;;;0.70;;
76023;SDS011;64719;52.124;6.226;2023-07-20T13:39:43;1.63;;;0.90;;
76023;SDS011;64719;52.124;6.226;2023-07-20T13:42:10;1.20;;;0.70;;
76023;SDS011;64719;52.124;6.226;2023-07-20T13:44:39;1.10;;;0.80;;
76023;SDS011;64719;52.124;6.226;2023-07-20T13:47:07;2.53;;;0.70;;
76023;SDS011;64719;52.124;6.226;2023-07-20T13:49:33;1.20;;;0.85;;
76023;SDS011;64719;52.124;6.226;2023-07-20T13:52:00;0.95;;;0.63;;
76023;SDS011;64719;52.124;6.226;2023-07-20T13:54:27;1.85;;;0.88;;
76023;SDS011;64719;52.124;6.226;2023-07-20T13:56:53;1.20;;;0.82;;
76023;SDS011;64719;52.124;6.226;2023-07-20T13:59:20;1.92;;;0.85;;
76023;SDS011;64719;52.124;6.226;2023-07-20T14:01:48;1.67;;;0.90;;
76023;SDS011;64719;52.124;6.226;2023-07-20T14:04:15;1.20;;;0.70;;
76023;SDS011;64719;52.124;6.226;2023-07-20T14:06:42;1.88;;;0.77;;
76023;SDS011;64719;52.124;6.226;2023-07-20T14:09:09;1.27;;;0.80;;
76023;SDS011;64719;52.124;6.226;2023-07-20T14:11:35;1.20;;;0.90;;
76023;SDS011;64719;52.124;6.226;2023-07-20T14:14:02;1.67;;;0.70;;
76023;SDS011;64719;52.124;6.226;2023-07-20T14:16:29;1.83;;;0.80;;
76023;SDS011;64719;52.124;6.226;2023-07-20T14:18:58;1.65;;;0.80;;
76023;SDS011;64719;52.124;6.226;2023-07-20T14:21:25;0.90;;;0.70;;
76023;SDS011;64719;52.124;6.226;2023-07-20T14:23:52;1.75;;;0.80;;
76023;SDS011;64719;52.124;6.226;2023-07-20T14:26:19;1.60;;;0.88;;
76023;SDS011;64719;52.124;6.226;2023-07-20T14:28:46;1.67;;;1.00;;
76023;SDS011;64719;52.124;6.226;2023-07-20T14:31:12;2.95;;;1.00;;
76023;SDS011;64719;52.124;6.226;2023-07-20T14:33:39;2.25;;;0.90;;
76023;SDS011;64719;52.124;6.226;2023-07-20T14:36:07;4.10;;;1.15;;
76023;SDS011;64719;52.124;6.226;2023-07-20T14:38:34;1.83;;;0.90;;
76023;SDS011;64719;52.124;6.226;2023-07-20T14:41:01;1.95;;;1.00;;
76023;SDS011;64719;52.124;6.226;2023-07-20T14:43:28;1.73;;;1.10;;
76023;SDS011;64719;52.124;6.226;2023-07-20T14:45:54;1.52;;;1.13;;
76023;SDS011;64719;52.124;6.226;2023-07-20T14:48:21;6.65;;;1.42;;
76023;SDS011;64719;52.124;6.226;2023-07-20T14:50:47;2.72;;;1.15;;
76023;SDS011;64719;52.124;6.226;2023-07-20T14:53:15;2.78;;;1.10;;
76023;SDS011;64719;52.124;6.226;2023-07-20T14:55:42;2.97;;;1.15;;
76023;SDS011;64719;52.124;6.226;2023-07-20T14:58:09;2.05;;;1.00;;
76023;SDS011;64719;52.124;6.226;2023-07-20T15:00:36;1.65;;;1.10;;
76023;SDS011;64719;52.124;6.226;2023-07-20T15:03:02;2.22;;;1.00;;